WetterOnline ( https://www.wetteronline.ch )

Wetter aktuell Greifswalder Bodden

Aktuelles Wetter: Greifswalder Oie (12m)

6-stündlich | Neueste Meldungen
Ortszeit Temperatur Wetter
Do, 18.07. 8:00 17.2° C fast wolkenlos
Do, 18.07. 2:00 17.8° C bedeckt
Mi, 17.07. 20:00 18.5° C leichter Regen
Mi, 17.07. 14:00 19.3° C bewölkt
Mi, 17.07. 8:00 17.6° C wolkenlos
Mi, 17.07. 2:00 18.2° C wolkenlos
Di, 16.07. 20:00 19.3° C bedeckt
Di, 16.07. 14:00 21.6° C bewölkt
Ortszeit Temperatur Wetter
Do, 18.07. 9:10 17.7° C leicht bewölkt
Do, 18.07. 9:00 17.4° C leicht bewölkt
Do, 18.07. 8:50 17.4° C leicht bewölkt
Do, 18.07. 8:40 17.4° C fast wolkenlos
Do, 18.07. 8:30 17.2° C fast wolkenlos
Do, 18.07. 8:20 17.2° C fast wolkenlos
Do, 18.07. 8:00 17.2° C fast wolkenlos
Do, 18.07. 7:30 17.1° C leicht bewölkt
Do, 18.07. 7:00 17.4° C bewölkt
Do, 18.07. 6:30 17.3° C leicht bewölkt
Ortszeit Relative Feuchte Sichtweite
Do, 18.07. 8:00 80% 40 km
Do, 18.07. 2:00 85% 55 km
Mi, 17.07. 20:00 88% 22 km
Mi, 17.07. 14:00 75% 50 km
Mi, 17.07. 8:00 83% 50 km
Mi, 17.07. 2:00 83% 55 km
Di, 16.07. 20:00 84% 50 km
Di, 16.07. 14:00 83% 55 km
Ortszeit Relative Feuchte Sichtweite
Do, 18.07. 9:10 79% -
Do, 18.07. 9:00 79% 55 km
Do, 18.07. 8:50 79% -
Do, 18.07. 8:40 80% -
Do, 18.07. 8:30 80% 40 km
Do, 18.07. 8:20 80% -
Do, 18.07. 8:00 80% 40 km
Do, 18.07. 7:30 83% 50 km
Do, 18.07. 7:00 82% 55 km
Do, 18.07. 6:30 81% 40 km
Ortszeit Niederschlagsmenge Niederschlagsart
Do, 18.07. 8:00 0.1 l/m2 in 12 Std. Regen
Do, 18.07. 2:00 0.1 l/m2 in 6 Std. Regen
Mi, 17.07. 20:00 1 l/m2 in 12 Std. Regen
Mi, 17.07. 14:00 0.1 l/m2 in 6 Std. Regen
Mi, 17.07. 8:00 0.1 l/m2 in 12 Std. -
Mi, 17.07. 2:00 0.1 l/m2 in 6 Std. Regen
Di, 16.07. 20:00 3 l/m2 in 12 Std. Regen
Di, 16.07. 14:00 1 l/m2 in 6 Std. Regen
Ortszeit Niederschlagsmenge Niederschlagsart
Do, 18.07. 9:10 keine Meldung -
Do, 18.07. 9:00 0.0 l/m2 in 1 Std. -
Do, 18.07. 8:50 keine Meldung -
Do, 18.07. 8:40 keine Meldung -
Do, 18.07. 8:30 0.0 l/m2 in 30 Min -
Do, 18.07. 8:20 keine Meldung -
Do, 18.07. 8:00 0.0 l/m2 in 1 Std. Regen
Do, 18.07. 7:30 0.0 l/m2 in 30 Min -
Do, 18.07. 7:00 0.0 l/m2 in 1 Std. -
Do, 18.07. 6:30 0.0 l/m2 in 30 Min -
Ortszeit Stärke Spitze Richtung
km/h Bft. km/h Grad Sektor
Do, 18.07. 8:00 33 5 48 280° W
Do, 18.07. 2:00 39 6 54 260° W
Mi, 17.07. 20:00 39 6 70 270° W
Mi, 17.07. 14:00 36 5 50 230° SW
Mi, 17.07. 8:00 32 5 50 240° SW
Mi, 17.07. 2:00 30 5 37 240° SW
Di, 16.07. 20:00 18 3 65 270° W
Di, 16.07. 14:00 11 2 36 200° S
Ortszeit Stärke Spitze Richtung
km/h Bft. km/h Grad Sektor
Do, 18.07. 9:10 29 5 - 280° W
Do, 18.07. 9:00 31 5 39 280° W
Do, 18.07. 8:50 31 5 - 280° W
Do, 18.07. 8:40 31 5 - 280° W
Do, 18.07. 8:30 31 5 37 280° W
Do, 18.07. 8:20 31 5 - 280° W
Do, 18.07. 8:00 33 5 41 280° W
Do, 18.07. 7:30 33 5 39 280° W
Do, 18.07. 7:00 31 5 46 290° W
Do, 18.07. 6:30 36 5 47 300° NW
Ortszeit Untergrenze Bedeckung Gattung
total tief tief mittel hoch
Do, 18.07. 8:00 420 m 1/8 1/8 - - -
Do, 18.07. 2:00 450 m 8/8 8/8 - - -
Mi, 17.07. 20:00 660 m 8/8 8/8 - - -
Mi, 17.07. 14:00 870 m 7/8 7/8 - - -
Mi, 17.07. 8:00 - 0/8 0/8 - - -
Mi, 17.07. 2:00 - 0/8 0/8 - - -
Di, 16.07. 20:00 3600 m 8/8 8/8 - - -
Di, 16.07. 14:00 3300 m 8/8 7/8 - - -
Ortszeit Bedeckungsgrad in Achtel und Wolkenuntergrenze
Do, 18.07. 9:10 4
Do, 18.07. 9:00 3(510m)
Do, 18.07. 8:50 3(510m)
Do, 18.07. 8:40 1
Do, 18.07. 8:30 1(450m)
Do, 18.07. 8:20 1(450m)
Do, 18.07. 8:00 1(420m)
Do, 18.07. 7:30 4(420m)
Do, 18.07. 7:00 7(450m) 7(570m)
Do, 18.07. 6:30 1(450m) 3(780m)
Ortszeit Luftdruck NN (hPa) Tendenz (hPa in 3 Std.)
Do, 18.07. 8:00 1022 + 1,0
Do, 18.07. 2:00 1020 + 0,9
Mi, 17.07. 20:00 1018 + 0,7
Mi, 17.07. 14:00 1017 + 1,4
Mi, 17.07. 8:00 1014 + 1,3
Mi, 17.07. 2:00 1012 + 0,6
Di, 16.07. 20:00 1010 + 1,0
Di, 16.07. 14:00 1010 - 0,6
Ortszeit Luftdruck NN (hPa) Tendenz (hPa in 3 Std.)
Do, 18.07. 9:10 1023 keine Meldung
Do, 18.07. 9:00 1023 + 1,4
Do, 18.07. 8:50 1023 keine Meldung
Do, 18.07. 8:40 1023 keine Meldung
Do, 18.07. 8:30 1022 + 1,2
Do, 18.07. 8:20 1022 keine Meldung
Do, 18.07. 8:00 1022 + 1,0
Do, 18.07. 7:30 1022 + 1,2
Do, 18.07. 7:00 1022 + 1,3
Do, 18.07. 6:30 1022 + 1,0
Ortszeit Schneehöhe (cm)
Do, 18.07. 8:00 0
Do, 18.07. 2:00 0
Mi, 17.07. 20:00 0
Mi, 17.07. 14:00 0
Mi, 17.07. 8:00 0
Mi, 17.07. 2:00 0
Di, 16.07. 20:00 0
Di, 16.07. 14:00 0
Ortszeit Schneehöhe (cm)
Do, 18.07. 9:10 -
Do, 18.07. 9:00 0
Do, 18.07. 8:50 0
Do, 18.07. 8:40 -
Do, 18.07. 8:30 0
Do, 18.07. 8:20 0
Do, 18.07. 8:00 0
Do, 18.07. 7:30 0
Do, 18.07. 7:00 0
Do, 18.07. 6:30 0
Link zu dieser Seite / Seite empfehlen

Das Wetter in ...